Time;durP1;ratioP1;P1;durP2;ratioP2;P2;SDS_P1;SDS_P2;PMS_P1;PMS_P2;Temp;Humidity;BMP_temperature;BMP_pressure;BME280_temperature;BME280_humidity;BME280_pressure;Samples;Min_cycle;Max_cycle;Signal;HPM_P1;HPM_P2
2021/10/02 00:01:28;;;;;;;2.50;0.60;;;13.30;99.90;;;;;;6025309;23;20016;-88
2021/10/02 00:37:10;;;;;;;4.55;2.72;;;13.30;99.90;;;;;;6080715;23;20035;-88
2021/10/02 00:45:04;;;;;;;2.97;1.80;;;13.30;99.90;;;;;;6084170;23;20003;-88
2021/10/02 00:47:35;;;;;;;3.00;1.77;;;13.30;99.90;;;;;;6000819;23;20031;-89
2021/10/02 00:50:03;;;;;;;3.13;2.13;;;13.30;99.90;;;;;;6000955;23;20041;-88
2021/10/02 00:52:30;;;;;;;3.13;2.10;;;13.30;99.90;;;;;;6024373;23;20038;-88
2021/10/02 00:54:56;;;;;;;2.00;1.63;;;13.30;99.90;;;;;;6000456;23;20020;-88
2021/10/02 00:57:22;;;;;;;3.75;1.70;;;13.30;99.90;;;;;;6000820;23;20015;-88
2021/10/02 00:59:48;;;;;;;2.90;2.00;;;13.30;99.90;;;;;;6024415;23;20012;-88
2021/10/02 01:02:26;;;;;;;2.55;1.92;;;13.30;99.90;;;;;;6023968;23;20022;-88
2021/10/02 01:05:11;;;;;;;4.95;2.17;;;13.30;99.90;;;;;;6000907;23;20015;-88
2021/10/02 01:07:51;;;;;;;4.60;2.05;;;13.30;99.90;;;;;;6000751;23;20050;-88
2021/10/02 01:10:44;;;;;;;2.70;1.48;;;13.30;99.90;;;;;;6024654;23;20031;-88
2021/10/02 01:13:39;;;;;;;2.75;1.25;;;13.30;99.90;;;;;;5999977;23;20685;-87
2021/10/02 01:16:25;;;;;;;5.50;2.15;;;13.30;99.90;;;;;;6000270;23;20070;-88
2021/10/02 01:19:05;;;;;;;4.50;1.63;;;13.30;99.90;;;;;;6023912;23;20016;-88
2021/10/02 01:21:40;;;;;;;4.47;2.17;;;13.40;99.90;;;;;;6000906;23;20031;-89
2021/10/02 01:24:28;;;;;;;4.15;1.42;;;13.40;99.90;;;;;;6050471;23;20021;-89
2021/10/02 01:26:57;;;;;;;2.28;1.30;;;13.30;99.90;;;;;;6087355;23;20011;-89
2021/10/02 01:29:25;;;;;;;3.30;2.30;;;13.40;99.90;;;;;;6087540;23;20034;-89
2021/10/02 01:32:15;;;;;;;3.97;1.63;;;13.40;99.90;;;;;;6087741;23;20037;-89
2021/10/02 01:37:38;;;;;;;4.63;1.92;;;13.30;99.90;;;;;;6111299;23;20007;-89
2021/10/02 01:48:17;;;;;;;3.60;2.60;;;13.40;99.90;;;;;;6110502;23;20002;-89
2021/10/02 01:50:45;;;;;;;4.63;2.25;;;13.30;99.90;;;;;;6087314;23;20003;-89
2021/10/02 01:53:12;;;;;;;3.83;3.03;;;13.30;99.90;;;;;;6086888;23;20070;-89
2021/10/02 01:55:39;;;;;;;3.65;2.78;;;13.30;99.90;;;;;;6064517;23;20006;-89
2021/10/02 01:58:08;;;;;;;6.00;2.33;;;13.40;99.90;;;;;;6086895;23;20009;-89
2021/10/02 02:00:38;;;;;;;3.47;2.03;;;13.30;99.90;;;;;;6087108;23;20070;-89
2021/10/02 02:03:06;;;;;;;5.30;2.72;;;13.30;99.90;;;;;;6087442;23;20010;-89
2021/10/02 02:05:34;;;;;;;3.95;2.50;;;13.30;99.90;;;;;;6062980;23;20014;-86
2021/10/02 02:08:06;;;;;;;3.47;1.90;;;13.30;99.90;;;;;;6086504;23;20010;-88
2021/10/02 02:10:33;;;;;;;4.05;2.47;;;13.30;99.90;;;;;;6087265;23;20101;-88
2021/10/02 02:13:00;;;;;;;5.97;3.33;;;13.30;99.90;;;;;;6062844;23;20019;-89
2021/10/02 02:15:31;;;;;;;5.55;3.63;;;13.30;99.90;;;;;;6086753;23;20029;-89
2021/10/02 02:18:05;;;;;;;5.15;2.97;;;13.30;99.90;;;;;;6086909;23;20002;-89
2021/10/02 02:20:41;;;;;;;3.65;2.08;;;13.30;99.90;;;;;;6110791;23;20022;-89
2021/10/02 02:23:09;;;;;;;3.60;2.30;;;13.30;99.90;;;;;;6111123;23;20006;-89
2021/10/02 02:25:35;;;;;;;4.00;2.65;;;13.30;99.90;;;;;;6086696;23;20010;-88
2021/10/02 02:28:01;;;;;;;6.32;3.55;;;13.30;99.90;;;;;;6062589;23;20035;-90
2021/10/02 02:30:27;;;;;;;10.15;3.30;;;13.30;99.90;;;;;;6075278;23;20014;-90
2021/10/02 02:32:53;;;;;;;4.72;3.70;;;13.30;99.90;;;;;;6086959;23;20013;-89
2021/10/02 02:35:21;;;;;;;5.72;3.15;;;13.30;99.90;;;;;;6086688;23;20015;-89
2021/10/02 02:37:47;;;;;;;5.30;2.45;;;13.30;99.90;;;;;;6110439;23;20013;-89
2021/10/02 02:40:13;;;;;;;6.93;3.38;;;13.30;99.90;;;;;;6086594;23;20014;-88
2021/10/02 02:42:39;;;;;;;4.22;3.25;;;13.30;99.90;;;;;;6110569;23;20034;-89
2021/10/02 02:45:07;;;;;;;5.07;3.50;;;13.30;99.90;;;;;;6110291;23;20070;-88
2021/10/02 02:47:39;;;;;;;5.90;2.83;;;13.30;99.90;;;;;;6062470;23;20015;-88
2021/10/02 02:50:29;;;;;;;4.47;3.53;;;13.30;99.90;;;;;;6062533;23;20017;-89
2021/10/02 02:53:06;;;;;;;6.50;4.32;;;13.30;99.90;;;;;;6062769;23;20508;-89
2021/10/02 02:55:47;;;;;;;5.38;2.75;;;13.40;99.90;;;;;;6062948;23;20021;-89
2021/10/02 02:58:17;;;;;;;6.57;3.95;;;13.30;99.90;;;;;;6062420;23;20017;-87
2021/10/02 03:00:53;;;;;;;5.30;3.30;;;13.30;99.90;;;;;;6085879;23;20010;-89
2021/10/02 03:03:26;;;;;;;3.80;3.40;;;13.40;99.90;;;;;;6062754;23;20074;-89
2021/10/02 03:05:57;;;;;;;5.05;3.58;;;13.30;99.90;;;;;;6085641;23;20014;-89
2021/10/02 03:08:24;;;;;;;4.80;3.13;;;13.30;99.90;;;;;;6086217;23;20006;-89
2021/10/02 03:10:59;;;;;;;7.65;2.97;;;13.30;99.90;;;;;;6086019;23;20019;-89
2021/10/02 03:13:26;;;;;;;5.63;3.50;;;13.30;99.90;;;;;;6086634;23;20041;-89
2021/10/02 03:15:56;;;;;;;7.45;3.15;;;13.30;99.90;;;;;;6086149;23;20013;-89
2021/10/02 03:18:23;;;;;;;3.70;3.10;;;13.30;99.90;;;;;;6062534;23;20014;-89
2021/10/02 03:20:50;;;;;;;5.53;3.60;;;13.30;99.90;;;;;;6086295;23;20007;-90
2021/10/02 03:23:19;;;;;;;5.20;4.25;;;13.30;99.90;;;;;;6109777;23;20009;-89
2021/10/02 03:25:47;;;;;;;7.75;4.82;;;13.30;99.90;;;;;;6086049;23;20042;-89
2021/10/02 03:28:14;;;;;;;5.80;5.15;;;13.30;99.90;;;;;;6086186;23;20188;-88
2021/10/02 03:30:40;;;;;;;5.68;4.53;;;13.30;99.90;;;;;;6085990;23;20202;-89
2021/10/02 03:33:06;;;;;;;5.88;5.10;;;13.30;99.90;;;;;;6062140;23;20010;-89
2021/10/02 03:35:32;;;;;;;6.00;5.00;;;13.30;99.90;;;;;;6062217;23;20022;-89
2021/10/02 03:37:59;;;;;;;7.97;4.45;;;13.30;99.90;;;;;;6086230;23;20503;-89
2021/10/02 03:40:25;;;;;;;5.47;3.75;;;13.30;99.90;;;;;;6062295;23;20026;-87
2021/10/02 03:42:56;;;;;;;5.50;4.10;;;13.30;99.90;;;;;;6061929;23;20042;-90
2021/10/02 03:45:26;;;;;;;4.22;3.08;;;13.30;99.90;;;;;;6062132;23;20042;-89
2021/10/02 03:47:52;;;;;;;3.88;2.60;;;13.30;99.90;;;;;;6062268;23;20006;-89
2021/10/02 03:50:18;;;;;;;4.20;3.13;;;13.30;99.90;;;;;;6085997;23;20058;-89
2021/10/02 03:52:44;;;;;;;4.50;3.05;;;13.30;99.90;;;;;;6061971;23;20010;-89
2021/10/02 03:55:12;;;;;;;5.40;3.60;;;13.20;99.90;;;;;;6086028;23;20033;-88
2021/10/02 03:57:38;;;;;;;6.70;4.32;;;13.30;99.90;;;;;;6061805;23;20058;-88
2021/10/02 04:00:06;;;;;;;7.25;4.50;;;13.30;99.90;;;;;;6061914;23;20014;-88
2021/10/02 04:02:32;;;;;;;7.07;4.50;;;13.30;99.90;;;;;;6061752;23;20063;-88
2021/10/02 04:04:58;;;;;;;6.45;4.95;;;13.20;99.90;;;;;;6086071;23;20015;-87
2021/10/02 04:07:27;;;;;;;4.88;4.38;;;13.20;99.90;;;;;;6061849;23;20010;-87
2021/10/02 04:09:52;;;;;;;6.72;4.90;;;13.20;99.90;;;;;;6085526;23;20033;-89
2021/10/02 04:12:18;;;;;;;7.07;5.72;;;13.20;99.90;;;;;;6086323;23;20002;-89
2021/10/02 04:14:44;;;;;;;10.45;5.45;;;13.30;99.90;;;;;;6063707;23;20432;-88
2021/10/02 04:17:09;;;;;;;5.85;3.92;;;13.30;99.90;;;;;;6087494;23;20003;-88
2021/10/02 04:19:35;;;;;;;7.25;4.82;;;13.30;99.90;;;;;;6063973;23;20018;-88
2021/10/02 04:22:01;;;;;;;7.93;4.38;;;13.30;99.90;;;;;;6111856;23;20376;-88
2021/10/02 04:24:28;;;;;;;5.43;4.22;;;13.20;99.90;;;;;;6087931;23;20006;-88
2021/10/02 04:26:58;;;;;;;3.92;3.53;;;13.30;99.90;;;;;;6111749;23;20048;-88
2021/10/02 04:29:25;;;;;;;6.35;3.97;;;13.30;99.90;;;;;;6063786;23;20017;-89
2021/10/02 04:31:50;;;;;;;5.22;3.80;;;13.30;99.90;;;;;;6111560;23;20089;-89
2021/10/02 04:34:16;;;;;;;5.63;3.88;;;13.20;99.90;;;;;;6087766;23;20021;-89
2021/10/02 04:36:42;;;;;;;5.60;3.42;;;13.20;99.90;;;;;;6087794;23;20006;-88
2021/10/02 04:39:08;;;;;;;5.50;4.03;;;13.20;99.90;;;;;;6087940;23;20065;-88
2021/10/02 04:41:33;;;;;;;5.10;3.58;;;13.20;99.90;;;;;;6063539;23;20078;-88
2021/10/02 04:43:59;;;;;;;8.75;4.40;;;13.10;99.90;;;;;;6087886;23;20503;-87
2021/10/02 04:46:25;;;;;;;7.72;5.60;;;13.10;99.90;;;;;;6063362;23;20037;-88
2021/10/02 04:48:50;;;;;;;6.88;5.40;;;12.90;99.90;;;;;;6063818;23;20018;-88
2021/10/02 04:51:16;;;;;;;7.88;4.75;;;12.90;99.90;;;;;;6087203;23;20040;-87
2021/10/02 04:53:42;;;;;;;6.22;4.97;;;12.80;99.90;;;;;;6064311;23;20021;-89
2021/10/02 04:56:10;;;;;;;5.05;3.42;;;12.80;99.90;;;;;;6065906;23;20011;-89
2021/10/02 04:58:36;;;;;;;5.60;3.97;;;12.70;99.90;;;;;;6089151;23;20007;-88
2021/10/02 05:01:04;;;;;;;6.05;3.45;;;12.70;99.90;;;;;;6064202;23;20046;-87
2021/10/02 05:03:29;;;;;;;3.70;3.25;;;12.70;99.90;;;;;;6109439;23;20424;-86
2021/10/02 05:05:55;;;;;;;3.35;2.78;;;12.70;99.90;;;;;;6087111;23;20009;-87
2021/10/02 05:08:21;;;;;;;5.28;3.67;;;12.60;99.90;;;;;;6086703;23;20011;-87
2021/10/02 05:10:46;;;;;;;5.75;3.55;;;12.60;99.90;;;;;;6087254;23;20027;-86
2021/10/02 05:13:12;;;;;;;6.53;2.38;;;12.60;99.90;;;;;;6086858;23;20347;-87
2021/10/02 05:15:38;;;;;;;7.68;3.55;;;12.50;99.90;;;;;;6086793;23;20010;-88
2021/10/02 05:18:04;;;;;;;4.70;3.25;;;12.50;99.90;;;;;;6086129;23;20038;-88
2021/10/02 05:20:30;;;;;;;4.43;3.38;;;12.50;99.90;;;;;;6062445;23;20010;-88
2021/10/02 05:22:56;;;;;;;2.70;1.60;;;12.60;99.90;;;;;;6110827;23;20018;-87
2021/10/02 05:25:22;;;;;;;5.55;4.50;;;12.60;99.90;;;;;;6086514;23;20328;-88
2021/10/02 05:27:48;;;;;;;9.18;5.07;;;12.60;99.90;;;;;;6062722;23;20014;-88
2021/10/02 05:30:14;;;;;;;4.68;3.75;;;12.50;99.90;;;;;;6087069;23;20089;-88
2021/10/02 05:32:39;;;;;;;6.22;4.85;;;12.50;99.90;;;;;;6062404;23;20066;-87
2021/10/02 05:35:06;;;;;;;7.00;4.75;;;12.50;99.90;;;;;;6086711;23;20026;-87
2021/10/02 05:37:31;;;;;;;6.85;5.07;;;12.50;99.90;;;;;;6062599;23;20010;-87
2021/10/02 05:39:57;;;;;;;4.85;4.32;;;12.40;99.90;;;;;;6086699;23;20014;-88
2021/10/02 05:42:23;;;;;;;6.05;4.70;;;12.40;99.90;;;;;;6086544;23;20010;-87
2021/10/02 05:44:48;;;;;;;4.75;3.55;;;12.40;99.90;;;;;;6086983;23;20206;-88
2021/10/02 05:47:14;;;;;;;5.15;3.70;;;12.40;99.90;;;;;;6110203;23;20436;-89
2021/10/02 05:49:41;;;;;;;4.95;3.58;;;12.50;99.90;;;;;;6086717;23;20007;-89
2021/10/02 05:52:09;;;;;;;6.72;4.40;;;12.40;99.90;;;;;;6062707;23;20010;-88
2021/10/02 05:54:39;;;;;;;5.15;4.05;;;12.30;99.90;;;;;;6062623;23;20339;-89
2021/10/02 05:57:05;;;;;;;5.40;3.67;;;12.30;99.90;;;;;;6062858;23;20439;-89
2021/10/02 05:59:31;;;;;;;4.93;4.43;;;12.30;99.90;;;;;;6061701;23;20025;-89
2021/10/02 06:01:56;;;;;;;5.78;4.82;;;12.20;99.90;;;;;;6061039;23;20014;-87
2021/10/02 06:04:22;;;;;;;10.38;4.88;;;12.20;99.90;;;;;;6062240;23;20030;-89
2021/10/02 06:06:48;;;;;;;5.63;3.90;;;12.20;99.90;;;;;;6085828;23;20101;-89
2021/10/02 06:09:13;;;;;;;5.03;4.50;;;12.20;99.90;;;;;;6061679;23;20073;-88
2021/10/02 06:11:39;;;;;;;6.22;4.95;;;12.10;99.90;;;;;;6085842;23;20059;-90
2021/10/02 06:14:05;;;;;;;5.32;4.82;;;12.10;99.90;;;;;;6085390;23;20025;-89
2021/10/02 06:16:32;;;;;;;7.47;5.40;;;12.10;99.90;;;;;;6061515;23;20010;-88
2021/10/02 06:18:57;;;;;;;6.35;4.78;;;12.10;99.90;;;;;;6085398;23;20017;-89
2021/10/02 06:21:23;;;;;;;7.22;5.57;;;12.10;99.90;;;;;;6061796;23;20018;-88
2021/10/02 06:23:49;;;;;;;7.68;5.32;;;12.10;99.90;;;;;;6085598;23;20339;-88
2021/10/02 06:26:14;;;;;;;6.47;5.22;;;12.20;99.90;;;;;;6109586;23;20049;-89
2021/10/02 06:28:40;;;;;;;8.60;5.57;;;12.20;99.90;;;;;;6061742;23;20069;-88
2021/10/02 06:31:06;;;;;;;4.95;4.45;;;12.30;99.90;;;;;;6085191;23;20011;-90
2021/10/02 06:33:32;;;;;;;6.57;5.05;;;12.30;99.90;;;;;;6061335;23;20011;-89
2021/10/02 06:35:57;;;;;;;6.70;4.00;;;12.50;99.90;;;;;;6061494;23;20034;-89
2021/10/02 06:38:23;;;;;;;6.60;4.38;;;12.50;99.90;;;;;;6061227;23;20006;-89
2021/10/02 06:40:49;;;;;;;6.72;3.75;;;12.50;99.90;;;;;;6085548;23;20010;-88
2021/10/02 06:43:15;;;;;;;8.38;3.88;;;12.50;99.90;;;;;;6061834;23;20034;-89
2021/10/02 06:45:41;;;;;;;6.28;4.43;;;12.60;99.90;;;;;;6109108;23;20029;-89
2021/10/02 06:48:07;;;;;;;8.07;6.05;;;12.60;99.90;;;;;;6110179;23;20081;-88
2021/10/02 06:50:34;;;;;;;5.45;4.93;;;12.60;99.90;;;;;;6109147;23;20006;-88
2021/10/02 06:53:01;;;;;;;7.68;5.18;;;12.70;99.90;;;;;;6085736;23;20050;-90
2021/10/02 06:55:26;;;;;;;11.43;6.57;;;12.70;99.90;;;;;;6061601;23;20089;-88
2021/10/02 06:57:52;;;;;;;6.68;5.55;;;12.80;99.90;;;;;;6108937;23;20007;-88
2021/10/02 07:00:18;;;;;;;5.63;5.05;;;12.90;99.90;;;;;;6085227;23;20007;-88
2021/10/02 07:02:44;;;;;;;8.57;5.18;;;12.90;99.90;;;;;;6109476;23;20014;-87
2021/10/02 07:05:11;;;;;;;9.57;7.18;;;12.90;99.90;;;;;;6108429;23;20018;-88
2021/10/02 07:07:37;;;;;;;10.05;6.85;;;12.90;99.90;;;;;;6061264;23;20376;-87
2021/10/02 07:10:04;;;;;;;8.55;6.70;;;13.00;99.90;;;;;;6085371;23;20010;-87
2021/10/02 07:12:30;;;;;;;8.82;6.13;;;13.10;99.90;;;;;;6085356;23;20062;-86
2021/10/02 07:14:55;;;;;;;7.47;5.78;;;13.10;99.90;;;;;;6061256;23;20021;-88
2021/10/02 07:17:21;;;;;;;14.10;7.90;;;13.10;99.90;;;;;;6061790;23;20006;-86
2021/10/02 07:19:47;;;;;;;10.57;7.90;;;13.10;99.90;;;;;;6108728;23;20014;-88
2021/10/02 07:22:12;;;;;;;9.93;6.85;;;13.10;99.90;;;;;;6060936;23;20085;-87
2021/10/02 07:24:38;;;;;;;9.75;6.03;;;13.20;99.90;;;;;;6061138;23;20010;-88
2021/10/02 07:27:04;;;;;;;7.15;5.50;;;13.30;99.90;;;;;;6085236;23;20041;-87
2021/10/02 07:29:29;;;;;;;5.32;4.25;;;13.40;99.90;;;;;;6060959;23;20039;-87
2021/10/02 07:31:55;;;;;;;5.70;3.92;;;13.40;99.90;;;;;;6061179;23;20030;-88
2021/10/02 07:34:22;;;;;;;8.07;5.10;;;13.50;99.90;;;;;;6060923;23;20038;-86
2021/10/02 07:36:47;;;;;;;7.10;4.47;;;13.40;99.90;;;;;;6084472;23;20014;-88
2021/10/02 07:39:13;;;;;;;7.32;3.90;;;13.50;99.90;;;;;;6060991;23;20026;-86
2021/10/02 07:41:41;;;;;;;8.52;4.43;;;13.60;99.90;;;;;;6085070;23;20432;-86
2021/10/02 07:44:10;;;;;;;10.93;5.68;;;13.60;99.90;;;;;;6061267;23;20014;-86
2021/10/02 07:46:40;;;;;;;11.10;7.13;;;13.60;99.90;;;;;;6060751;23;20006;-87
2021/10/02 07:49:06;;;;;;;7.80;6.93;;;13.60;99.90;;;;;;6060888;23;20010;-86
2021/10/02 07:51:32;;;;;;;11.70;5.25;;;13.70;99.90;;;;;;6108714;23;20030;-85
2021/10/02 07:53:59;;;;;;;8.63;5.20;;;13.70;99.90;;;;;;6061096;23;20022;-85
2021/10/02 07:56:27;;;;;;;8.35;5.32;;;13.90;99.90;;;;;;6061007;23;20006;-86
2021/10/02 07:58:54;;;;;;;8.05;5.10;;;14.10;99.90;;;;;;6084703;23;20063;-86
2021/10/02 08:01:21;;;;;;;5.78;4.53;;;14.40;99.90;;;;;;6060700;23;20440;-87
2021/10/02 08:03:48;;;;;;;8.38;5.55;;;14.50;99.90;;;;;;6060924;23;20018;-87
2021/10/02 08:06:16;;;;;;;8.95;6.82;;;14.40;99.90;;;;;;6084547;23;20279;-85
2021/10/02 08:08:42;;;;;;;6.53;5.20;;;14.60;99.90;;;;;;6060918;23;20022;-88
2021/10/02 08:11:08;;;;;;;5.60;4.30;;;14.70;99.90;;;;;;6060798;23;20495;-85
2021/10/02 08:13:34;;;;;;;7.25;4.05;;;14.80;99.90;;;;;;6084559;23;20014;-86
2021/10/02 08:16:01;;;;;;;7.25;4.55;;;14.80;99.90;;;;;;6060674;23;20015;-84
2021/10/02 08:18:35;;;;;;;5.78;4.68;;;14.80;99.90;;;;;;6060937;23;20038;-87
2021/10/02 08:21:01;;;;;;;9.10;4.97;;;14.70;99.90;;;;;;6085011;23;20038;-85
2021/10/02 08:23:27;;;;;;;7.47;4.15;;;14.80;99.90;;;;;;6060719;23;20006;-87
2021/10/02 08:25:54;;;;;;;6.20;4.47;;;14.90;99.90;;;;;;6060785;23;20038;-87
2021/10/02 08:28:20;;;;;;;9.45;3.83;;;15.10;99.90;;;;;;6079700;23;20507;-86
2021/10/02 08:30:50;;;;;;;4.50;3.28;;;15.20;99.90;;;;;;6106974;23;20033;-87
2021/10/02 08:33:16;;;;;;;;;;;15.20;99.90;;;;;;6061138;23;20018;-86
2021/10/02 08:35:42;;;;;;;8.90;4.45;;;15.10;99.90;;;;;;6108648;23;19949;-88
2021/10/02 08:38:09;;;;;;;5.43;3.83;;;15.30;99.90;;;;;;6084057;23;20006;-87
2021/10/02 08:40:34;;;;;;;4.88;2.92;;;15.30;99.90;;;;;;6084585;23;20010;-87
2021/10/02 08:43:01;;;;;;;5.78;3.35;;;15.40;99.90;;;;;;6060682;23;20142;-87
2021/10/02 08:45:29;;;;;;;4.68;2.20;;;15.40;99.90;;;;;;6108501;23;20050;-86
2021/10/02 08:47:57;;;;;;;6.28;4.00;;;15.40;99.90;;;;;;6108422;23;20179;-88
2021/10/02 08:50:24;;;;;;;5.53;3.90;;;15.00;99.90;;;;;;6079715;23;20011;-88
2021/10/02 08:52:53;;;;;;;7.28;4.72;;;15.00;99.90;;;;;;6132676;23;20392;-87
2021/10/02 08:55:21;;;;;;;5.10;3.28;;;15.10;99.90;;;;;;6060367;23;20015;-87
2021/10/02 08:57:49;;;;;;;8.23;3.88;;;15.10;99.90;;;;;;6083656;23;20007;-87
2021/10/02 09:00:20;;;;;;;3.65;2.78;;;15.20;99.90;;;;;;6086113;23;20070;-86
2021/10/02 09:02:46;;;;;;;6.03;4.10;;;15.30;99.90;;;;;;6062248;23;20045;-87
2021/10/02 09:05:13;;;;;;;7.57;4.22;;;15.10;99.90;;;;;;6062754;23;20006;-87
2021/10/02 09:07:39;;;;;;;6.65;5.00;;;14.90;99.90;;;;;;6110346;23;20008;-87
2021/10/02 09:10:09;;;;;;;6.85;3.58;;;14.90;99.90;;;;;;6062818;23;20085;-86
2021/10/02 09:12:38;;;;;;;7.40;5.47;;;15.00;99.90;;;;;;6111945;23;20006;-87
2021/10/02 09:15:04;;;;;;;7.55;4.28;;;15.00;99.90;;;;;;6062288;23;20018;-87
2021/10/02 09:17:31;;;;;;;7.95;7.00;;;15.10;99.90;;;;;;6062441;23;20441;-87
2021/10/02 09:19:57;;;;;;;7.55;5.95;;;15.30;99.90;;;;;;6110756;23;20015;-88
2021/10/02 09:22:23;;;;;;;8.02;5.78;;;15.50;99.90;;;;;;6062221;23;20006;-87
2021/10/02 09:24:50;;;;;;;8.23;6.53;;;15.60;99.90;;;;;;6110687;23;20153;-87
2021/10/02 09:27:42;;;;;;;8.48;5.47;;;15.70;99.90;;;;;;6061994;23;20013;-87
2021/10/02 09:30:11;;;;;;;10.05;5.60;;;16.00;99.90;;;;;;6107628;23;20010;-87
2021/10/02 09:32:41;;;;;;;4.90;4.00;;;16.30;99.90;;;;;;6086450;23;20010;-87
2021/10/02 09:35:12;;;;;;;6.50;3.10;;;16.40;99.90;;;;;;6110507;23;20018;-87
2021/10/02 09:37:40;;;;;;;4.07;3.08;;;16.30;99.90;;;;;;6061989;23;20066;-86
2021/10/02 09:40:16;;;;;;;3.75;1.70;;;16.20;99.90;;;;;;6062352;23;20011;-86
2021/10/02 09:42:44;;;;;;;4.50;2.50;;;16.10;99.90;;;;;;6062277;23;20014;-86
2021/10/02 09:45:22;;;;;;;4.55;2.08;;;16.30;99.90;;;;;;6094740;23;20025;-84
2021/10/02 09:47:54;;;;;;;6.18;2.20;;;16.10;99.90;;;;;;6054100;23;20018;-86
2021/10/02 09:50:22;;;;;;;5.60;2.05;;;16.10;99.90;;;;;;6060843;23;20010;-85
2021/10/02 09:52:56;;;;;;;3.70;1.08;;;16.40;99.90;;;;;;6084387;23;20011;-85
2021/10/02 09:55:31;;;;;;;4.55;0.90;;;16.60;99.90;;;;;;6084185;23;20034;-85
2021/10/02 09:58:00;;;;;;;2.20;0.65;;;16.40;99.90;;;;;;6084661;23;20006;-84
2021/10/02 10:00:42;;;;;;;2.58;0.60;;;16.30;99.90;;;;;;6084616;23;20019;-84
2021/10/02 10:03:10;;;;;;;1.83;0.73;;;16.30;99.90;;;;;;6084139;23;20014;-84
2021/10/02 10:05:44;;;;;;;4.40;0.70;;;16.20;99.90;;;;;;6086251;23;20010;-84
2021/10/02 10:08:12;;;;;;;2.65;0.60;;;16.40;99.90;;;;;;6047506;23;20026;-84
2021/10/02 10:10:40;;;;;;;5.10;0.63;;;16.50;99.90;;;;;;6083945;23;20074;-84
2021/10/02 10:13:20;;;;;;;1.65;0.50;;;16.50;99.90;;;;;;6060869;23;20006;-87
2021/10/02 10:15:54;;;;;;;3.67;0.43;;;16.50;99.90;;;;;;6058939;23;20014;-87
2021/10/02 10:18:35;;;;;;;3.38;0.40;;;16.30;99.90;;;;;;6060885;23;20046;-87
2021/10/02 10:21:11;;;;;;;4.25;0.45;;;16.30;99.90;;;;;;6060897;23;20034;-89
2021/10/02 10:23:42;;;;;;;2.42;0.45;;;16.40;99.90;;;;;;6084533;23;20006;-85
2021/10/02 10:26:15;;;;;;;1.33;0.40;;;16.70;99.90;;;;;;6085035;23;20026;-88
2021/10/02 10:28:44;;;;;;;2.35;0.40;;;16.90;99.90;;;;;;6084666;23;20033;-87
2021/10/02 10:31:20;;;;;;;1.27;0.40;;;16.90;99.90;;;;;;6060320;23;20038;-87
2021/10/02 10:33:49;;;;;;;1.42;0.40;;;16.90;99.90;;;;;;6110555;23;20018;-88
2021/10/02 10:36:18;;;;;;;0.95;0.30;;;17.10;99.90;;;;;;6061572;23;20014;-88
2021/10/02 10:38:44;;;;;;;1.98;0.30;;;17.60;99.90;;;;;;6061148;23;20058;-90
2021/10/02 10:41:11;;;;;;;2.10;0.38;;;17.60;99.90;;;;;;6109483;23;20369;-87
2021/10/02 10:43:38;;;;;;;1.38;0.20;;;17.40;99.90;;;;;;6108847;23;20010;-84
2021/10/02 10:46:10;;;;;;;3.03;0.30;;;17.30;99.90;;;;;;6047455;23;20050;-86
2021/10/02 10:48:36;;;;;;;2.08;0.30;;;17.00;99.90;;;;;;6060929;23;20006;-85
2021/10/02 10:51:08;;;;;;;0.85;0.20;;;16.90;99.90;;;;;;6084568;23;20010;-85
2021/10/02 10:53:39;;;;;;;1.45;0.20;;;16.90;99.90;;;;;;6060265;23;20452;-84
2021/10/02 10:56:07;;;;;;;1.90;0.20;;;16.80;99.90;;;;;;6060857;23;20042;-82
2021/10/02 10:58:34;;;;;;;1.30;0.35;;;16.60;99.90;;;;;;6060913;23;20320;-86
2021/10/02 11:01:02;;;;;;;1.77;0.30;;;16.60;99.90;;;;;;6085093;23;20066;-87
2021/10/02 11:03:35;;;;;;;1.20;0.20;;;16.70;99.90;;;;;;6085646;23;20033;-88
2021/10/02 11:06:08;;;;;;;0.70;0.20;;;16.70;99.90;;;;;;6109619;23;20045;-89
2021/10/02 11:08:48;;;;;;;0.90;0.30;;;16.60;99.90;;;;;;6061459;23;20029;-86
2021/10/02 11:11:15;;;;;;;1.02;0.30;;;16.50;99.90;;;;;;6109957;23;20042;-89
2021/10/02 11:13:46;;;;;;;1.77;0.30;;;16.60;99.90;;;;;;6061347;23;20014;-85
2021/10/02 11:16:34;;;;;;;2.55;0.30;;;16.60;99.90;;;;;;6109584;23;20089;-88
2021/10/02 11:19:00;;;;;;;0.80;0.30;;;16.80;99.90;;;;;;6084769;23;20482;-86
2021/10/02 11:21:29;;;;;;;1.00;0.30;;;16.80;99.90;;;;;;6084158;23;20010;-87
2021/10/02 11:24:14;;;;;;;0.50;0.20;;;16.90;99.90;;;;;;6073152;23;20022;-87
2021/10/02 11:27:02;;;;;;;1.33;0.73;;;16.80;99.90;;;;;;6082485;23;20010;-84
2021/10/02 11:29:36;;;;;;;0.80;0.20;;;16.90;99.90;;;;;;6108379;23;20012;-84
2021/10/02 11:32:22;;;;;;;1.75;0.20;;;16.90;99.90;;;;;;6060858;23;20010;-84
2021/10/02 11:35:09;;;;;;;0.43;0.10;;;16.60;99.90;;;;;;6069855;23;20029;-82
2021/10/02 11:37:49;;;;;;;1.15;0.15;;;16.60;99.90;;;;;;6083212;23;20018;-81
2021/10/02 11:40:40;;;;;;;0.70;0.10;;;16.70;99.90;;;;;;6083610;23;20037;-84
2021/10/02 11:43:14;;;;;;;0.50;0.20;;;16.90;99.90;;;;;;6108304;23;20010;-86
2021/10/02 11:45:52;;;;;;;0.68;0.20;;;17.40;99.90;;;;;;6108693;23;20017;-84
2021/10/02 11:48:20;;;;;;;0.80;0.20;;;17.70;99.90;;;;;;6083757;23;20013;-85
2021/10/02 11:51:15;;;;;;;1.92;0.20;;;17.80;99.90;;;;;;6106640;23;20021;-84
2021/10/02 11:53:56;;;;;;;0.80;0.20;;;17.90;99.90;;;;;;6110772;23;20024;-86
2021/10/02 11:56:29;;;;;;;0.50;0.10;;;17.90;99.90;;;;;;6085773;23;20011;-84
2021/10/02 11:58:57;;;;;;;1.05;0.20;;;17.70;99.90;;;;;;6085506;23;20439;-84
2021/10/02 12:01:30;;;;;;;0.90;0.10;;;17.40;99.90;;;;;;6060604;23;20018;-87
2021/10/02 12:04:07;;;;;;;1.05;0.20;;;17.40;99.90;;;;;;6107835;23;20006;-86
2021/10/02 12:06:34;;;;;;;0.73;0.15;;;17.60;99.90;;;;;;6084437;23;20007;-85
2021/10/02 12:09:01;;;;;;;0.52;0.20;;;17.70;99.90;;;;;;6107809;23;20005;-84
2021/10/02 12:11:28;;;;;;;0.65;0.10;;;17.60;99.90;;;;;;6084250;23;20013;-84
2021/10/02 12:13:55;;;;;;;0.40;0.10;;;17.50;99.90;;;;;;6107733;23;20097;-85
2021/10/02 12:16:24;;;;;;;0.55;0.10;;;17.50;99.90;;;;;;6084154;23;20062;-84
2021/10/02 12:18:58;;;;;;;0.70;0.20;;;17.80;99.90;;;;;;6109844;23;20014;-84
2021/10/02 12:21:25;;;;;;;0.43;0.15;;;18.10;99.90;;;;;;6084133;23;20013;-85
2021/10/02 12:23:59;;;;;;;0.90;0.10;;;18.10;99.90;;;;;;6084418;23;20093;-83
2021/10/02 12:26:26;;;;;;;0.70;0.17;;;18.10;99.90;;;;;;6060506;23;20010;-84
2021/10/02 12:29:04;;;;;;;0.68;0.20;;;17.90;99.90;;;;;;6059687;23;20006;-83
2021/10/02 12:31:46;;;;;;;0.63;0.20;;;17.80;99.90;;;;;;6060747;23;20018;-84
2021/10/02 12:34:18;;;;;;;0.30;0.10;;;17.70;99.90;;;;;;6061498;23;20053;-84
2021/10/02 12:36:50;;;;;;;1.08;0.10;;;17.60;99.90;;;;;;6086027;23;20007;-85
2021/10/02 12:39:17;;;;;;;0.35;0.15;;;17.70;99.90;;;;;;6085905;23;20014;-84
2021/10/02 12:41:44;;;;;;;1.58;0.13;;;17.50;99.90;;;;;;6062118;23;20007;-85
2021/10/02 12:44:22;;;;;;;1.25;0.13;;;17.30;99.90;;;;;;6085893;23;20017;-83
2021/10/02 12:46:49;;;;;;;1.02;0.10;;;17.20;99.90;;;;;;6110116;23;20010;-85
2021/10/02 12:49:15;;;;;;;0.40;0.20;;;17.20;99.90;;;;;;6086437;23;20054;-84
2021/10/02 12:51:42;;;;;;;1.23;0.20;;;17.00;99.90;;;;;;6062247;23;20041;-86
2021/10/02 12:54:09;;;;;;;0.75;0.30;;;17.00;99.90;;;;;;6061403;23;20018;-85
2021/10/02 12:56:52;;;;;;;0.60;0.10;;;16.80;99.90;;;;;;6062102;23;20007;-86
2021/10/02 12:59:18;;;;;;;0.88;0.10;;;17.00;99.90;;;;;;6085940;23;20010;-84
2021/10/02 13:01:49;;;;;;;0.35;0.10;;;17.20;99.90;;;;;;6085919;23;20376;-84
2021/10/02 13:04:19;;;;;;;0.43;0.10;;;17.30;99.90;;;;;;6062256;23;20061;-85
2021/10/02 13:06:52;;;;;;;0.30;0.10;;;17.30;99.90;;;;;;6111490;23;20049;-86
2021/10/02 13:09:19;;;;;;;0.80;0.20;;;17.30;99.90;;;;;;6086104;23;20014;-84
2021/10/02 13:11:46;;;;;;;0.88;0.10;;;17.30;99.90;;;;;;6061818;23;20006;-86
2021/10/02 13:14:30;;;;;;;0.68;0.20;;;17.40;99.90;;;;;;6085459;23;20074;-85
2021/10/02 13:17:00;;;;;;;0.47;0.10;;;17.40;99.90;;;;;;6061831;23;20007;-86
2021/10/02 13:19:28;;;;;;;1.02;0.20;;;17.50;99.90;;;;;;6062305;23;20053;-84
2021/10/02 13:22:10;;;;;;;1.05;0.20;;;17.60;99.90;;;;;;6081290;23;20066;-85
2021/10/02 13:24:36;;;;;;;0.38;0.10;;;17.50;99.90;;;;;;6082756;23;20021;-84
2021/10/02 13:27:11;;;;;;;0.45;0.15;;;17.50;99.90;;;;;;6108851;23;20097;-85
2021/10/02 13:29:38;;;;;;;1.25;0.20;;;17.60;99.90;;;;;;6085861;23;20010;-84
2021/10/02 13:32:15;;;;;;;0.60;0.20;;;17.70;99.90;;;;;;6086012;23;20002;-86
2021/10/02 13:34:52;;;;;;;0.60;0.20;;;17.50;99.90;;;;;;6062105;23;20101;-84
2021/10/02 13:37:25;;;;;;;0.60;0.20;;;17.50;99.90;;;;;;6062342;23;20006;-85
2021/10/02 13:39:52;;;;;;;0.65;0.20;;;17.50;99.90;;;;;;6112779;23;20081;-84
2021/10/02 13:42:19;;;;;;;0.43;0.20;;;17.30;99.90;;;;;;6061830;23;20010;-86
2021/10/02 13:45:05;;;;;;;0.57;0.20;;;17.30;99.90;;;;;;6108862;23;20026;-82
2021/10/02 13:47:31;;;;;;;0.75;0.30;;;17.40;99.90;;;;;;6026642;23;20536;-86